Time;durP1;ratioP1;P1;durP2;ratioP2;P2;SDS_P1;SDS_P2;PMS_P1;PMS_P2;Temp;Humidity;BMP_temperature;BMP_pressure;BME280_temperature;BME280_humidity;BME280_pressure;Samples;Min_cycle;Max_cycle;Signal;HPM_P1;HPM_P2
2023/08/10 00:01:51;;;;;;;0.88;0.88;;;14.00;99.90;;;;;;4979263;28;20049;-90
2023/08/10 00:04:17;;;;;;;0.95;0.95;;;14.00;99.90;;;;;;4983292;28;20050;-91
2023/08/10 00:06:43;;;;;;;0.95;0.95;;;14.10;99.90;;;;;;4985256;28;20042;-91
2023/08/10 00:09:10;;;;;;;1.02;1.02;;;14.10;99.90;;;;;;4985576;28;20165;-91
2023/08/10 00:11:36;;;;;;;0.95;0.95;;;14.00;99.90;;;;;;4985711;28;20050;-92
2023/08/10 00:14:03;;;;;;;0.88;0.88;;;14.00;99.90;;;;;;4981708;28;20132;-91
2023/08/10 00:16:31;;;;;;;0.90;0.90;;;14.10;99.90;;;;;;4983471;28;20120;-92
2023/08/10 00:18:57;;;;;;;0.88;0.88;;;14.10;99.90;;;;;;4980655;28;20122;-91
2023/08/10 00:21:23;;;;;;;1.05;1.05;;;14.10;99.90;;;;;;4981539;28;20069;-91
2023/08/10 00:23:49;;;;;;;1.25;1.25;;;14.10;99.90;;;;;;4990008;28;20045;-92
2023/08/10 00:26:14;;;;;;;0.95;0.95;;;14.20;99.90;;;;;;4978496;28;20054;-91
2023/08/10 00:28:40;;;;;;;0.90;0.90;;;14.20;99.90;;;;;;4982072;28;20133;-92
2023/08/10 00:31:06;;;;;;;0.90;0.90;;;14.10;99.90;;;;;;4980788;28;20112;-91
2023/08/10 00:33:32;;;;;;;0.95;0.95;;;14.10;99.90;;;;;;4996154;28;20053;-91
2023/08/10 00:35:59;;;;;;;0.90;0.90;;;14.20;99.90;;;;;;4987374;28;20042;-91
2023/08/10 00:38:25;;;;;;;1.25;1.25;;;14.10;99.90;;;;;;4985906;28;20052;-91
2023/08/10 00:40:50;;;;;;;1.30;1.30;;;14.10;99.90;;;;;;4984471;28;20069;-90
2023/08/10 00:43:16;;;;;;;1.25;1.25;;;14.00;99.90;;;;;;4985950;28;20115;-90
2023/08/10 00:45:42;;;;;;;1.20;1.20;;;14.10;99.90;;;;;;4985998;28;20054;-90
2023/08/10 00:48:08;;;;;;;1.30;1.30;;;14.10;99.90;;;;;;4981641;28;20053;-91
2023/08/10 00:50:34;;;;;;;1.30;1.30;;;14.00;99.90;;;;;;4981563;28;20057;-91
2023/08/10 00:53:00;;;;;;;1.50;1.40;;;14.10;99.90;;;;;;4979379;28;20042;-90
2023/08/10 00:55:26;;;;;;;1.30;1.30;;;14.10;99.90;;;;;;4979262;28;20096;-90
2023/08/10 00:57:52;;;;;;;1.50;1.40;;;14.10;99.90;;;;;;4986191;28;20037;-89
2023/08/10 01:00:18;;;;;;;1.38;1.35;;;14.00;99.90;;;;;;4995378;28;20034;-90
2023/08/10 01:02:43;;;;;;;1.48;1.40;;;14.00;99.90;;;;;;4983911;28;20052;-90
2023/08/10 01:05:11;;;;;;;1.40;1.38;;;14.00;99.90;;;;;;5002627;28;20078;-90
2023/08/10 01:07:50;;;;;;;1.30;1.30;;;14.00;99.90;;;;;;4987275;28;20537;-89
2023/08/10 01:10:16;;;;;;;1.35;1.30;;;14.00;99.90;;;;;;5002112;28;20434;-89
2023/08/10 01:12:49;;;;;;;1.45;1.38;;;14.00;99.90;;;;;;4991387;28;20050;-90
2023/08/10 01:15:33;;;;;;;1.48;1.40;;;13.90;99.90;;;;;;5001745;28;20042;-89
2023/08/10 01:18:05;;;;;;;1.30;1.30;;;13.80;99.90;;;;;;4990866;28;20073;-90
2023/08/10 01:20:31;;;;;;;1.33;1.33;;;13.90;99.90;;;;;;4998110;28;20802;-90
2023/08/10 01:23:12;;;;;;;1.27;1.27;;;13.90;99.90;;;;;;4988154;28;20076;-90
2023/08/10 01:25:39;;;;;;;1.23;1.23;;;13.90;99.90;;;;;;4988883;28;20407;-90
2023/08/10 01:28:05;;;;;;;1.25;1.25;;;13.90;99.90;;;;;;4987495;28;20042;-91
2023/08/10 01:30:31;;;;;;;1.27;1.27;;;13.90;99.90;;;;;;4983587;28;20049;-90
2023/08/10 01:32:57;;;;;;;1.25;1.25;;;13.80;99.90;;;;;;4986929;28;20038;-90
2023/08/10 01:35:22;;;;;;;1.30;1.30;;;13.80;99.90;;;;;;4986937;28;20046;-90
2023/08/10 01:37:51;;;;;;;1.27;1.27;;;13.70;99.90;;;;;;4990472;28;20825;-91
2023/08/10 01:40:17;;;;;;;1.25;1.25;;;13.90;99.90;;;;;;4988855;28;20042;-90
2023/08/10 01:42:44;;;;;;;1.17;1.17;;;13.80;99.90;;;;;;4984064;28;20052;-90
2023/08/10 01:45:10;;;;;;;1.17;1.17;;;13.80;99.90;;;;;;4985370;28;20058;-90
2023/08/10 01:47:57;;;;;;;1.20;1.20;;;13.80;99.90;;;;;;4987854;28;20133;-89
2023/08/10 01:50:26;;;;;;;1.17;1.17;;;13.80;99.90;;;;;;4985105;28;20038;-90
2023/08/10 01:53:02;;;;;;;1.13;1.13;;;13.80;99.90;;;;;;5005161;28;20045;-90
2023/08/10 01:55:28;;;;;;;1.17;1.17;;;13.90;99.90;;;;;;4984591;28;20495;-90
2023/08/10 01:57:54;;;;;;;1.17;1.17;;;13.90;99.90;;;;;;5002792;28;20797;-90
2023/08/10 02:00:20;;;;;;;1.20;1.20;;;13.90;99.90;;;;;;4991688;28;21703;-91
2023/08/10 02:02:46;;;;;;;1.23;1.23;;;13.90;99.90;;;;;;4983972;28;20039;-91
2023/08/10 02:05:12;;;;;;;1.23;1.23;;;13.80;99.90;;;;;;4988677;28;20041;-91
2023/08/10 02:07:38;;;;;;;1.15;1.15;;;13.90;99.90;;;;;;4994941;28;20055;-91
2023/08/10 02:10:05;;;;;;;1.10;1.10;;;13.80;99.90;;;;;;4990608;28;20128;-91
2023/08/10 02:12:31;;;;;;;1.17;1.17;;;13.80;99.90;;;;;;4988464;28;20762;-92
2023/08/10 02:14:58;;;;;;;1.15;1.15;;;13.90;99.90;;;;;;4986168;28;20057;-90
2023/08/10 02:17:25;;;;;;;1.20;1.20;;;13.90;99.90;;;;;;4985188;28;20057;-92
2023/08/10 02:19:51;;;;;;;1.23;1.23;;;13.90;99.90;;;;;;4979301;28;20512;-91
2023/08/10 02:22:17;;;;;;;1.15;1.15;;;14.00;99.90;;;;;;4984943;28;20065;-91
2023/08/10 02:24:42;;;;;;;1.25;1.25;;;13.90;99.90;;;;;;4986567;28;20057;-91
2023/08/10 02:27:08;;;;;;;1.17;1.17;;;13.90;99.90;;;;;;4991453;28;20103;-91
2023/08/10 02:29:34;;;;;;;1.17;1.17;;;13.90;99.90;;;;;;4990325;28;20037;-89
2023/08/10 02:32:00;;;;;;;1.25;1.25;;;13.90;99.90;;;;;;4989882;28;20042;-92
2023/08/10 02:34:26;;;;;;;1.25;1.25;;;14.00;99.90;;;;;;4990656;28;20049;-91
2023/08/10 02:36:52;;;;;;;1.27;1.27;;;13.90;99.90;;;;;;4987125;28;20042;-92
2023/08/10 02:39:18;;;;;;;1.20;1.20;;;13.90;99.90;;;;;;4989949;28;20675;-91
2023/08/10 02:41:44;;;;;;;1.38;1.35;;;13.80;99.90;;;;;;4988630;28;20135;-92
2023/08/10 02:44:10;;;;;;;1.20;1.20;;;13.80;99.90;;;;;;4998397;28;20050;-89
2023/08/10 02:46:36;;;;;;;1.20;1.20;;;13.80;99.90;;;;;;5000549;28;20045;-90
2023/08/10 02:49:01;;;;;;;1.20;1.20;;;13.80;99.90;;;;;;5006006;28;21976;-90
2023/08/10 02:51:27;;;;;;;1.25;1.25;;;13.70;99.90;;;;;;4986579;28;20050;-90
2023/08/10 02:53:53;;;;;;;1.15;1.15;;;13.70;99.90;;;;;;4985959;28;20079;-91
2023/08/10 02:56:19;;;;;;;1.15;1.15;;;13.60;99.90;;;;;;4988874;28;20511;-91
2023/08/10 02:58:44;;;;;;;1.23;1.23;;;13.60;99.90;;;;;;4993200;28;20492;-93
2023/08/10 03:01:10;;;;;;;1.25;1.25;;;13.60;99.90;;;;;;4985636;28;20500;-90
2023/08/10 03:03:36;;;;;;;1.15;1.15;;;13.50;99.90;;;;;;4984871;28;20052;-91
2023/08/10 03:06:02;;;;;;;1.13;1.13;;;13.50;99.90;;;;;;4986066;28;20038;-91
2023/08/10 03:08:28;;;;;;;1.23;1.23;;;13.50;99.90;;;;;;4990370;28;20096;-92
2023/08/10 03:10:54;;;;;;;1.15;1.15;;;13.40;99.90;;;;;;4986414;28;21630;-93
2023/08/10 03:13:19;;;;;;;1.15;1.15;;;13.50;99.90;;;;;;4982504;28;20042;-90
2023/08/10 03:15:45;;;;;;;1.13;1.13;;;13.40;99.90;;;;;;4983838;28;20136;-92
2023/08/10 03:18:11;;;;;;;1.08;1.08;;;13.50;99.90;;;;;;4981563;28;20049;-91
2023/08/10 03:20:37;;;;;;;1.10;1.10;;;13.50;99.90;;;;;;4982565;28;20034;-90
2023/08/10 03:23:02;;;;;;;1.08;1.08;;;13.50;99.90;;;;;;4986652;28;20049;-91
2023/08/10 03:25:28;;;;;;;1.05;1.05;;;13.50;99.90;;;;;;4981152;28;20104;-91
2023/08/10 03:27:54;;;;;;;1.08;1.08;;;13.40;99.90;;;;;;4980100;28;20052;-91
2023/08/10 03:30:19;;;;;;;1.15;1.15;;;13.50;99.90;;;;;;4984143;28;20038;-91
2023/08/10 03:32:46;;;;;;;1.08;1.08;;;13.50;99.90;;;;;;4978559;28;20078;-91
2023/08/10 03:35:13;;;;;;;1.10;1.10;;;13.50;99.90;;;;;;4987909;28;20563;-90
2023/08/10 03:37:38;;;;;;;1.05;1.05;;;13.60;99.90;;;;;;4980118;28;20053;-91
2023/08/10 03:40:06;;;;;;;1.08;1.08;;;13.50;99.90;;;;;;4982984;28;20045;-91
2023/08/10 03:42:32;;;;;;;1.05;1.05;;;13.50;99.90;;;;;;4988241;28;20136;-89
2023/08/10 03:44:58;;;;;;;1.05;1.05;;;13.50;99.90;;;;;;4987759;28;20129;-90
2023/08/10 03:47:24;;;;;;;1.05;1.05;;;13.50;99.90;;;;;;4986271;28;20058;-91
2023/08/10 03:49:49;;;;;;;1.02;1.02;;;13.60;99.90;;;;;;4988814;28;20046;-90
2023/08/10 03:52:15;;;;;;;0.98;0.98;;;13.70;99.90;;;;;;4984700;28;20045;-90
2023/08/10 03:54:41;;;;;;;1.05;1.05;;;13.60;99.90;;;;;;4984091;28;20050;-91
2023/08/10 03:57:06;;;;;;;0.98;0.98;;;13.50;99.90;;;;;;4979365;28;20120;-91
2023/08/10 03:59:32;;;;;;;1.08;1.08;;;13.70;99.90;;;;;;4985355;28;20510;-91
2023/08/10 04:01:58;;;;;;;1.00;1.00;;;13.70;99.90;;;;;;4984599;28;20046;-89
2023/08/10 04:04:24;;;;;;;1.05;1.05;;;13.70;99.90;;;;;;4989064;28;20033;-92
2023/08/10 04:06:50;;;;;;;1.05;1.05;;;13.80;99.90;;;;;;4987921;28;20095;-91
2023/08/10 04:09:48;;;;;;;1.00;1.00;;;13.80;99.90;;;;;;4990459;28;20045;-93
2023/08/10 04:12:14;;;;;;;0.98;0.98;;;13.80;99.90;;;;;;4967451;28;20057;-90
2023/08/10 04:14:40;;;;;;;0.95;0.95;;;13.90;99.90;;;;;;4979721;28;20132;-91
2023/08/10 04:17:06;;;;;;;0.98;0.98;;;13.80;99.90;;;;;;4986220;28;20038;-90
2023/08/10 04:19:32;;;;;;;0.95;0.95;;;13.80;99.90;;;;;;4986172;28;20046;-90
2023/08/10 04:21:57;;;;;;;0.98;0.98;;;13.90;99.90;;;;;;4976697;28;20045;-90
2023/08/10 04:24:23;;;;;;;1.02;1.02;;;14.00;99.90;;;;;;5000092;28;20230;-91
2023/08/10 04:26:49;;;;;;;1.02;1.02;;;13.90;99.90;;;;;;4980826;28;20331;-91
2023/08/10 04:29:16;;;;;;;0.98;0.98;;;13.90;99.90;;;;;;4981898;28;20046;-90
2023/08/10 04:31:42;;;;;;;0.95;0.95;;;14.00;99.90;;;;;;4983219;28;20045;-90
2023/08/10 04:34:08;;;;;;;0.93;0.93;;;14.00;99.90;;;;;;4983409;28;21527;-91
2023/08/10 04:36:34;;;;;;;1.02;1.02;;;13.90;99.90;;;;;;5001637;28;20053;-90
2023/08/10 04:39:00;;;;;;;1.02;1.02;;;14.10;99.90;;;;;;4977253;28;20065;-90
2023/08/10 04:41:25;;;;;;;0.98;0.98;;;14.10;99.90;;;;;;4986393;28;20077;-90
2023/08/10 04:43:51;;;;;;;1.02;1.02;;;14.10;99.90;;;;;;4988671;28;20866;-90
2023/08/10 04:46:17;;;;;;;0.95;0.95;;;14.00;99.90;;;;;;4994337;28;20087;-90
2023/08/10 04:48:43;;;;;;;1.02;1.02;;;14.10;99.90;;;;;;4986147;28;20126;-91
2023/08/10 04:51:08;;;;;;;1.00;1.00;;;14.10;99.90;;;;;;4987156;28;20058;-91
2023/08/10 04:53:34;;;;;;;1.00;1.00;;;14.20;99.90;;;;;;5001342;28;20034;-90
2023/08/10 04:56:00;;;;;;;1.00;1.00;;;14.30;99.90;;;;;;4985070;28;20143;-90
2023/08/10 04:58:26;;;;;;;1.00;1.00;;;14.30;99.90;;;;;;4983974;28;20053;-90
2023/08/10 05:00:52;;;;;;;1.05;1.05;;;14.20;99.90;;;;;;5002534;28;20042;-91
2023/08/10 05:03:20;;;;;;;1.00;1.00;;;14.20;99.90;;;;;;4991952;28;20076;-90
2023/08/10 05:05:46;;;;;;;1.00;1.00;;;14.30;99.90;;;;;;4983475;28;20050;-91
2023/08/10 05:08:12;;;;;;;1.00;1.00;;;14.40;99.90;;;;;;4983432;28;20637;-91
2023/08/10 05:10:38;;;;;;;1.00;1.00;;;14.60;99.90;;;;;;4986869;28;20057;-90
2023/08/10 05:13:04;;;;;;;1.00;1.00;;;14.60;99.90;;;;;;4996734;28;20046;-90
2023/08/10 05:15:30;;;;;;;0.90;0.90;;;14.50;99.90;;;;;;5000035;28;20158;-89
2023/08/10 05:17:56;;;;;;;1.00;1.00;;;14.60;99.90;;;;;;4985225;28;20061;-90
2023/08/10 05:20:22;;;;;;;1.00;1.00;;;14.60;99.90;;;;;;4987902;28;20042;-90
2023/08/10 05:22:54;;;;;;;1.05;1.05;;;14.70;99.90;;;;;;5005770;28;20030;-93
2023/08/10 05:25:20;;;;;;;1.00;1.00;;;14.90;99.90;;;;;;5002083;28;20112;-90
2023/08/10 05:27:49;;;;;;;1.05;1.05;;;14.70;99.90;;;;;;4993481;28;20046;-93
2023/08/10 05:30:15;;;;;;;1.00;1.00;;;15.00;99.90;;;;;;4989879;28;20482;-91
2023/08/10 05:32:43;;;;;;;1.05;1.05;;;14.90;99.90;;;;;;4992772;28;20045;-90
2023/08/10 05:35:10;;;;;;;1.00;1.00;;;14.90;99.90;;;;;;4983376;28;20085;-91
2023/08/10 05:37:36;;;;;;;1.30;1.20;;;15.00;99.90;;;;;;4982194;28;20085;-91
2023/08/10 05:40:09;;;;;;;1.00;1.00;;;15.40;99.90;;;;;;4990604;28;20395;-91
2023/08/10 05:42:35;;;;;;;1.10;1.10;;;15.60;99.90;;;;;;4986053;28;20073;-90
2023/08/10 05:45:01;;;;;;;0.95;0.95;;;15.60;99.90;;;;;;4985287;28;20042;-90
2023/08/10 05:47:27;;;;;;;0.95;0.95;;;15.50;99.90;;;;;;4988327;28;20057;-90
2023/08/10 05:49:52;;;;;;;0.90;0.90;;;15.50;99.90;;;;;;5001608;28;20109;-91
2023/08/10 05:52:18;;;;;;;0.90;0.90;;;15.70;99.90;;;;;;4981996;28;20065;-90
2023/08/10 05:54:44;;;;;;;0.90;0.90;;;15.70;99.90;;;;;;4985392;28;20129;-91
2023/08/10 05:57:10;;;;;;;0.80;0.80;;;15.80;99.90;;;;;;4989334;28;20060;-91
2023/08/10 05:59:38;;;;;;;0.80;0.80;;;15.80;99.90;;;;;;4986415;28;20041;-91
2023/08/10 06:02:04;;;;;;;0.80;0.80;;;16.00;99.90;;;;;;4999483;28;20050;-91
2023/08/10 06:04:30;;;;;;;0.80;0.80;;;15.90;99.90;;;;;;4981599;28;20074;-91
2023/08/10 06:06:56;;;;;;;0.73;0.73;;;16.00;99.90;;;;;;4982807;28;20117;-91
2023/08/10 06:09:21;;;;;;;0.73;0.73;;;16.00;99.90;;;;;;4983635;28;20049;-92
2023/08/10 06:11:47;;;;;;;0.70;0.70;;;16.00;99.90;;;;;;4987751;28;20074;-91
2023/08/10 06:14:13;;;;;;;0.77;0.77;;;16.00;99.90;;;;;;4984219;28;20162;-92
2023/08/10 06:16:39;;;;;;;0.75;0.75;;;16.00;99.90;;;;;;4989051;28;20551;-91
2023/08/10 06:19:06;;;;;;;0.77;0.77;;;15.90;99.90;;;;;;4986848;28;20064;-88
2023/08/10 06:21:34;;;;;;;0.70;0.70;;;15.90;99.90;;;;;;4986831;28;20096;-91
2023/08/10 06:23:59;;;;;;;0.70;0.70;;;16.10;99.90;;;;;;4984647;28;20133;-90
2023/08/10 06:26:25;;;;;;;0.70;0.70;;;16.10;99.90;;;;;;4994843;28;20133;-91
2023/08/10 06:28:51;;;;;;;0.60;0.60;;;16.30;99.90;;;;;;4977253;28;20097;-90
2023/08/10 06:31:16;;;;;;;0.63;0.63;;;16.70;99.90;;;;;;4989901;28;20057;-91
2023/08/10 06:33:42;;;;;;;0.60;0.60;;;17.00;99.90;;;;;;5003912;28;20042;-90
2023/08/10 06:36:10;;;;;;;0.60;0.60;;;17.00;99.90;;;;;;4984779;28;20054;-90
2023/08/10 06:38:36;;;;;;;0.70;0.70;;;17.20;99.90;;;;;;4982408;28;20033;-89
2023/08/10 06:41:02;;;;;;;0.70;0.70;;;17.40;99.90;;;;;;5014250;28;20107;-91
2023/08/10 06:43:29;;;;;;;0.65;0.65;;;17.50;99.90;;;;;;4984530;28;20047;-90
2023/08/10 06:45:55;;;;;;;0.60;0.60;;;17.60;99.90;;;;;;4987874;28;20138;-92
2023/08/10 06:48:21;;;;;;;0.60;0.60;;;17.70;99.90;;;;;;4984987;28;20049;-92
2023/08/10 06:50:47;;;;;;;0.60;0.60;;;17.80;99.90;;;;;;4989196;28;20042;-89
2023/08/10 06:53:13;;;;;;;0.70;0.70;;;17.80;99.90;;;;;;4985621;28;20104;-90
2023/08/10 06:55:38;;;;;;;0.60;0.60;;;17.80;99.90;;;;;;4984505;28;20495;-91
2023/08/10 06:58:05;;;;;;;0.60;0.60;;;17.90;99.90;;;;;;5002891;28;20045;-90
2023/08/10 07:00:31;;;;;;;0.60;0.60;;;17.90;99.90;;;;;;4986332;28;20046;-90
2023/08/10 07:02:58;;;;;;;0.63;0.63;;;18.10;99.90;;;;;;4983765;28;20049;-89
2023/08/10 07:05:27;;;;;;;0.60;0.60;;;18.00;99.90;;;;;;4996593;28;20046;-89
2023/08/10 07:07:55;;;;;;;0.60;0.60;;;18.10;99.90;;;;;;4997277;28;20046;-93
2023/08/10 07:10:21;;;;;;;0.60;0.60;;;18.30;99.90;;;;;;4982782;28;20073;-92
2023/08/10 07:12:46;;;;;;;0.60;0.60;;;18.60;99.90;;;;;;4985768;28;20077;-90
2023/08/10 07:15:12;;;;;;;0.60;0.60;;;18.60;99.90;;;;;;4996799;28;20113;-92
2023/08/10 07:17:38;;;;;;;0.60;0.60;;;18.70;99.90;;;;;;4985072;28;20129;-90
2023/08/10 07:20:18;;;;;;;;;;;;;;;;;;;;;
2023/08/10 07:22:55;;;;;;;0.50;0.50;;;19.20;99.90;;;;;;4998054;28;20054;-90
2023/08/10 07:25:21;;;;;;;0.50;0.50;;;19.30;99.90;;;;;;4983701;28;20050;-90
2023/08/10 07:27:51;;;;;;;0.50;0.50;;;19.30;99.90;;;;;;4982733;28;20049;-88
2023/08/10 07:30:23;;;;;;;0.50;0.50;;;19.50;99.90;;;;;;4993726;28;20142;-95
2023/08/10 07:32:49;;;;;;;0.50;0.50;;;19.90;99.90;;;;;;4987771;28;20403;-92
2023/08/10 07:35:15;;;;;;;0.47;0.47;;;19.90;99.90;;;;;;4984584;28;20065;-94
2023/08/10 07:37:41;;;;;;;0.50;0.50;;;19.80;99.90;;;;;;4985694;28;20045;-89
2023/08/10 07:40:10;;;;;;;0.50;0.50;;;19.70;99.90;;;;;;5004234;28;20052;-90
2023/08/10 07:42:37;;;;;;;0.40;0.40;;;19.90;99.90;;;;;;5001511;28;20491;-91
2023/08/10 07:45:05;;;;;;;0.50;0.50;;;20.00;99.90;;;;;;4982172;28;20054;-90
2023/08/10 07:47:30;;;;;;;0.50;0.50;;;20.20;99.90;;;;;;4986908;28;20092;-91
2023/08/10 07:49:56;;;;;;;0.50;0.50;;;20.30;99.90;;;;;;4984963;28;20554;-90
2023/08/10 07:52:22;;;;;;;0.40;0.40;;;20.40;99.90;;;;;;4980048;28;20046;-92
2023/08/10 07:54:50;;;;;;;0.50;0.50;;;20.50;99.90;;;;;;4984797;28;20054;-91
2023/08/10 07:57:16;;;;;;;0.50;0.50;;;20.80;99.90;;;;;;4984035;28;20238;-92
2023/08/10 07:59:41;;;;;;;0.40;0.40;;;20.80;99.90;;;;;;4981858;28;20080;-91
2023/08/10 08:02:19;;;;;;;0.47;0.47;;;21.10;99.90;;;;;;4979889;28;20061;-94
2023/08/10 08:04:45;;;;;;;0.43;0.43;;;21.10;99.90;;;;;;4987434;28;20045;-92
2023/08/10 08:07:10;;;;;;;0.40;0.40;;;21.10;99.90;;;;;;4986413;28;20046;-90
2023/08/10 08:09:36;;;;;;;0.40;0.40;;;21.20;99.90;;;;;;4985310;28;20132;-88
2023/08/10 08:12:05;;;;;;;0.40;0.40;;;21.20;99.90;;;;;;4981676;28;20558;-89
2023/08/10 08:14:30;;;;;;;0.40;0.40;;;21.30;99.90;;;;;;4995293;28;20042;-90
2023/08/10 08:16:56;;;;;;;0.40;0.40;;;21.30;99.90;;;;;;5008099;28;20509;-90
2023/08/10 08:19:22;;;;;;;0.50;0.50;;;21.00;99.90;;;;;;4990717;28;20050;-89
2023/08/10 08:21:53;;;;;;;0.50;0.50;;;20.60;99.90;;;;;;4989765;28;20061;-92
2023/08/10 08:24:27;;;;;;;0.40;0.40;;;20.60;99.90;;;;;;5001351;28;20152;-93
2023/08/10 08:26:56;;;;;;;0.40;0.40;;;20.80;99.90;;;;;;4986515;28;20053;-94
2023/08/10 08:29:23;;;;;;;0.40;0.40;;;20.80;99.90;;;;;;5005216;28;20096;-90
2023/08/10 08:31:49;;;;;;;0.40;0.40;;;20.80;99.90;;;;;;4999947;28;20096;-93
2023/08/10 08:34:15;;;;;;;0.40;0.40;;;20.60;99.90;;;;;;4988330;28;20054;-87
2023/08/10 08:36:41;;;;;;;0.40;0.40;;;20.80;99.90;;;;;;4987140;28;20118;-90
2023/08/10 08:39:08;;;;;;;0.40;0.40;;;20.70;99.90;;;;;;4992112;28;20050;-90
2023/08/10 08:41:37;;;;;;;0.40;0.40;;;20.60;99.90;;;;;;4987108;28;20089;-88
2023/08/10 08:44:05;;;;;;;0.47;0.47;;;20.50;99.90;;;;;;4986413;28;20073;-92
2023/08/10 08:46:33;;;;;;;0.40;0.40;;;20.70;99.90;;;;;;4985619;28;20106;-91
2023/08/10 08:49:01;;;;;;;0.43;0.43;;;20.70;99.90;;;;;;4994248;28;20048;-93
2023/08/10 08:51:27;;;;;;;0.50;0.50;;;20.50;99.90;;;;;;4999050;28;20045;-91
2023/08/10 08:53:53;;;;;;;0.50;0.50;;;20.50;99.90;;;;;;4989874;28;20088;-90
2023/08/10 08:56:20;;;;;;;0.40;0.40;;;20.50;99.90;;;;;;4989266;28;20049;-91
2023/08/10 08:58:45;;;;;;;0.40;0.40;;;20.40;99.90;;;;;;4992015;28;20563;-91
2023/08/10 09:01:13;;;;;;;0.50;0.50;;;20.30;99.90;;;;;;4984922;28;20125;-88
2023/08/10 09:03:39;;;;;;;0.45;0.45;;;20.20;99.90;;;;;;4985675;28;20407;-87
2023/08/10 09:06:04;;;;;;;0.47;0.47;;;20.10;99.90;;;;;;5002870;28;20509;-89
2023/08/10 09:08:30;;;;;;;0.50;0.50;;;19.90;99.90;;;;;;4984719;28;20137;-91
2023/08/10 09:10:56;;;;;;;0.50;0.50;;;19.70;99.90;;;;;;4987425;28;20134;-88
2023/08/10 09:13:23;;;;;;;0.40;0.40;;;19.70;99.90;;;;;;4987968;28;20483;-87
2023/08/10 09:16:09;;;;;;;0.45;0.45;;;19.80;99.90;;;;;;5000284;28;20073;-90
2023/08/10 09:18:37;;;;;;;0.40;0.40;;;19.80;99.90;;;;;;4996451;28;20048;-88
2023/08/10 09:21:14;;;;;;;0.50;0.50;;;19.70;99.90;;;;;;5005467;28;20549;-91
2023/08/10 09:23:44;;;;;;;0.40;0.40;;;19.60;99.90;;;;;;4989623;28;20050;-90
2023/08/10 09:26:11;;;;;;;0.40;0.40;;;19.70;99.90;;;;;;4988683;28;20124;-91
2023/08/10 09:28:37;;;;;;;0.40;0.40;;;19.60;99.90;;;;;;5000195;28;20050;-93
2023/08/10 09:31:08;;;;;;;0.40;0.40;;;19.60;99.90;;;;;;4990471;28;20050;-95
2023/08/10 09:33:35;;;;;;;0.50;0.50;;;19.60;99.90;;;;;;4988951;28;20042;-90
2023/08/10 09:36:03;;;;;;;0.40;0.40;;;19.40;99.90;;;;;;4999796;28;20057;-92
2023/08/10 09:38:57;;;;;;;0.40;0.40;;;19.40;99.90;;;;;;4989034;28;20046;-95
2023/08/10 09:41:23;;;;;;;0.40;0.40;;;19.30;99.90;;;;;;5023418;28;20062;-91
2023/08/10 09:43:51;;;;;;;0.50;0.50;;;19.30;99.90;;;;;;4987227;28;20049;-93
2023/08/10 09:46:55;;;;;;;0.40;0.40;;;19.30;99.90;;;;;;4986254;28;20058;-95
2023/08/10 09:49:20;;;;;;;0.40;0.40;;;19.30;99.90;;;;;;5004192;28;20060;-93
2023/08/10 09:51:47;;;;;;;0.40;0.40;;;19.20;99.90;;;;;;4997938;28;20037;-90
2023/08/10 09:54:56;;;;;;;0.40;0.40;;;19.20;99.90;;;;;;4987591;28;20038;-96
2023/08/10 09:57:50;;;;;;;0.40;0.40;;;19.20;99.90;;;;;;4984360;28;20062;-96
2023/08/10 10:00:22;;;;;;;0.40;0.40;;;19.20;99.90;;;;;;4992421;28;20050;-93
2023/08/10 10:03:09;;;;;;;0.40;0.40;;;19.30;99.90;;;;;;4975859;28;20034;-94
2023/08/10 10:05:51;;;;;;;0.40;0.40;;;19.40;99.90;;;;;;4990590;28;20047;-96
2023/08/10 10:08:26;;;;;;;0.40;0.40;;;19.40;99.90;;;;;;4989585;28;20108;-94
2023/08/10 10:11:14;;;;;;;0.43;0.43;;;19.40;99.90;;;;;;4982796;28;20046;-93
2023/08/10 10:13:45;;;;;;;0.50;0.50;;;19.40;99.90;;;;;;4999074;28;20120;-92
2023/08/10 10:16:12;;;;;;;0.40;0.40;;;19.40;99.90;;;;;;4991235;28;20053;-93
2023/08/10 10:19:07;;;;;;;0.40;0.40;;;19.50;99.90;;;;;;4988897;28;20557;-93
2023/08/10 10:21:47;;;;;;;0.40;0.40;;;19.50;99.90;;;;;;4989691;28;20136;-93
2023/08/10 10:24:18;;;;;;;0.50;0.50;;;19.60;99.90;;;;;;4990516;28;20038;-92
2023/08/10 10:27:18;;;;;;;0.40;0.40;;;19.60;99.90;;;;;;4999132;28;20044;-91
2023/08/10 10:29:56;;;;;;;0.50;0.50;;;19.70;99.90;;;;;;4989946;28;20069;-92
2023/08/10 10:32:22;;;;;;;0.40;0.40;;;19.70;99.90;;;;;;5001029;28;20300;-91
2023/08/10 10:34:51;;;;;;;0.40;0.40;;;19.70;99.90;;;;;;4985102;28;20478;-92
2023/08/10 10:37:35;;;;;;;0.40;0.40;;;19.70;99.90;;;;;;4986107;28;20572;-93
2023/08/10 10:40:18;;;;;;;0.43;0.43;;;19.70;99.90;;;;;;4982404;28;20058;-92
2023/08/10 10:43:09;;;;;;;0.40;0.40;;;19.90;99.90;;;;;;4985550;28;20065;-93
2023/08/10 10:45:36;;;;;;;0.40;0.40;;;20.00;99.90;;;;;;4996967;28;20082;-90
2023/08/10 10:48:04;;;;;;;0.40;0.40;;;20.00;99.90;;;;;;4997805;28;20066;-89
2023/08/10 10:50:32;;;;;;;0.40;0.40;;;20.00;99.90;;;;;;4979977;28;20048;-92
2023/08/10 10:52:58;;;;;;;0.40;0.40;;;20.10;99.90;;;;;;5004624;28;20117;-89
2023/08/10 10:55:44;;;;;;;0.40;0.40;;;20.10;99.90;;;;;;5004753;28;20053;-91
2023/08/10 10:58:12;;;;;;;0.40;0.40;;;20.20;99.90;;;;;;4999174;28;20058;-88
2023/08/10 11:00:38;;;;;;;0.50;0.50;;;20.20;99.90;;;;;;4982010;28;20491;-90
2023/08/10 11:03:05;;;;;;;0.50;0.50;;;20.40;99.90;;;;;;4999671;28;20057;-91
2023/08/10 11:05:31;;;;;;;0.40;0.40;;;20.50;99.90;;;;;;4982776;28;20050;-88
2023/08/10 11:08:03;;;;;;;0.50;0.50;;;20.40;99.90;;;;;;4996996;28;20053;-90
2023/08/10 11:10:31;;;;;;;0.40;0.40;;;20.40;99.90;;;;;;4991122;28;20043;-93
2023/08/10 11:12:57;;;;;;;0.50;0.50;;;20.50;99.90;;;;;;4986346;28;20061;-90
2023/08/10 11:15:23;;;;;;;0.50;0.50;;;20.40;99.90;;;;;;4980608;28;20121;-89
2023/08/10 11:17:53;;;;;;;0.50;0.50;;;20.40;99.90;;;;;;4978682;28;20440;-88
2023/08/10 11:20:20;;;;;;;0.60;0.60;;;20.30;99.90;;;;;;4976559;28;20081;-88
2023/08/10 11:22:51;;;;;;;0.60;0.60;;;20.30;99.90;;;;;;4983202;28;20199;-91
2023/08/10 11:25:20;;;;;;;0.60;0.60;;;20.30;99.90;;;;;;4983402;28;20505;-91
2023/08/10 11:27:48;;;;;;;0.60;0.60;;;20.30;99.90;;;;;;4982285;28;20053;-90
2023/08/10 11:30:34;;;;;;;0.50;0.50;;;20.50;99.90;;;;;;4983143;28;20081;-92
2023/08/10 11:33:00;;;;;;;0.50;0.50;;;20.50;99.90;;;;;;4997817;28;20046;-93
2023/08/10 11:35:26;;;;;;;0.50;0.50;;;20.50;99.90;;;;;;4984439;28;20137;-92
2023/08/10 11:37:52;;;;;;;0.50;0.50;;;20.80;99.90;;;;;;4986153;28;20046;-89
2023/08/10 11:40:23;;;;;;;0.50;0.50;;;20.70;99.90;;;;;;4984706;28;20069;-91
2023/08/10 11:43:02;;;;;;;0.50;0.50;;;20.70;99.90;;;;;;4984253;28;20137;-87
2023/08/10 11:45:29;;;;;;;0.50;0.50;;;20.80;99.90;;;;;;4998724;28;20080;-89
2023/08/10 11:47:59;;;;;;;0.50;0.50;;;21.00;99.90;;;;;;4994192;28;20512;-89
2023/08/10 11:50:26;;;;;;;0.50;0.50;;;21.10;99.90;;;;;;4993398;28;20049;-88
2023/08/10 11:52:53;;;;;;;0.40;0.40;;;21.40;99.90;;;;;;4985538;28;20100;-89
2023/08/10 11:55:20;;;;;;;0.40;0.40;;;21.50;99.90;;;;;;4980403;28;20533;-88
2023/08/10 11:57:51;;;;;;;0.40;0.40;;;21.90;99.90;;;;;;4996632;28;20503;-90
2023/08/10 12:00:23;;;;;;;0.30;0.30;;;22.20;99.90;;;;;;4978101;28;20069;-89
2023/08/10 12:03:02;;;;;;;0.40;0.40;;;22.20;99.90;;;;;;4978927;28;20443;-89
2023/08/10 12:05:38;;;;;;;0.40;0.40;;;22.30;99.90;;;;;;4986340;28;20049;-91
2023/08/10 12:08:06;;;;;;;0.43;0.43;;;22.10;99.90;;;;;;4976313;28;20050;-89
2023/08/10 12:10:50;;;;;;;0.40;0.40;;;21.30;99.90;;;;;;4995446;28;20042;-90
2023/08/10 12:13:17;;;;;;;0.40;0.40;;;21.10;99.90;;;;;;4979139;28;20045;-87
2023/08/10 12:15:46;;;;;;;0.40;0.40;;;21.60;99.90;;;;;;4981780;28;20042;-89
2023/08/10 12:18:13;;;;;;;0.40;0.40;;;21.80;99.90;;;;;;4982831;28;20115;-89
2023/08/10 12:20:39;;;;;;;0.40;0.40;;;21.80;99.90;;;;;;4977910;28;20053;-87
2023/08/10 12:23:07;;;;;;;0.40;0.40;;;21.90;99.90;;;;;;4994764;28;20067;-87
2023/08/10 12:25:32;;;;;;;0.50;0.50;;;21.90;99.90;;;;;;5003395;28;20129;-88
2023/08/10 12:27:58;;;;;;;0.50;0.50;;;22.00;99.90;;;;;;4982396;28;20521;-89
2023/08/10 12:30:24;;;;;;;0.60;0.60;;;22.10;99.90;;;;;;4982113;28;20461;-88
2023/08/10 12:32:49;;;;;;;0.70;0.70;;;22.30;99.90;;;;;;4983310;28;20053;-92
2023/08/10 12:35:15;;;;;;;0.60;0.60;;;22.20;99.90;;;;;;4981680;28;20419;-93
2023/08/10 12:37:41;;;;;;;0.60;0.60;;;22.20;99.90;;;;;;4981792;28;20053;-90
2023/08/10 12:40:10;;;;;;;0.60;0.60;;;22.30;99.90;;;;;;4981201;28;20809;-90
2023/08/10 12:42:37;;;;;;;0.60;0.60;;;22.50;99.90;;;;;;4980417;28;20042;-92
2023/08/10 12:45:03;;;;;;;0.60;0.60;;;22.60;99.90;;;;;;4981347;28;20038;-91
2023/08/10 12:47:28;;;;;;;0.70;0.70;;;22.60;99.90;;;;;;5000482;28;20103;-89
2023/08/10 12:49:57;;;;;;;0.70;0.70;;;22.70;99.90;;;;;;4997703;28;20038;-93
2023/08/10 12:52:23;;;;;;;0.70;0.70;;;22.80;99.90;;;;;;5002193;28;20042;-91
2023/08/10 12:54:49;;;;;;;0.30;0.30;;;23.00;99.90;;;;;;4982917;28;20778;-91